Time;durP1;ratioP1;P1;durP2;ratioP2;P2;SDS_P1;SDS_P2;PMS_P1;PMS_P2;Temp;Humidity;BMP_temperature;BMP_pressure;BME280_temperature;BME280_humidity;BME280_pressure;Samples;Min_cycle;Max_cycle;Signal;HPM_P1;HPM_P2
2023/08/29 04:30:33;;;;;;;0.00;0.00;;;15.00;78.70;;;;;;5888551;23;20055;-74
2023/08/29 04:32:59;;;;;;;0.10;0.10;;;15.00;78.90;;;;;;4940170;29;20455;-74
2023/08/29 04:35:25;;;;;;;0.08;0.08;;;15.00;79.00;;;;;;4963272;28;20123;-74
2023/08/29 04:37:50;;;;;;;0.00;0.00;;;15.00;79.00;;;;;;4978322;28;20062;-74
2023/08/29 04:40:18;;;;;;;0.00;0.00;;;15.00;78.80;;;;;;4972627;28;20035;-74
2023/08/29 04:42:44;;;;;;;0.10;0.10;;;15.00;78.80;;;;;;4979252;28;20034;-74
2023/08/29 04:45:10;;;;;;;0.10;0.10;;;15.00;79.00;;;;;;4969295;28;20171;-74
2023/08/29 04:47:37;;;;;;;0.10;0.10;;;15.00;78.90;;;;;;4959757;29;20118;-74
2023/08/29 04:50:03;;;;;;;0.08;0.08;;;15.10;78.70;;;;;;4949057;29;20059;-73
2023/08/29 04:52:29;;;;;;;0.10;0.10;;;15.20;78.40;;;;;;4949722;28;20055;-74
2023/08/29 04:54:55;;;;;;;0.00;0.00;;;15.10;78.40;;;;;;4923669;29;20028;-78
2023/08/29 04:57:21;;;;;;;0.10;0.10;;;15.10;78.30;;;;;;4940214;29;20032;-78
2023/08/29 04:59:47;;;;;;;0.05;0.05;;;15.10;78.50;;;;;;4939039;29;20032;-78
2023/08/29 05:02:14;;;;;;;0.05;0.05;;;15.20;78.30;;;;;;4951384;28;20059;-74
2023/08/29 05:04:42;;;;;;;0.10;0.10;;;15.10;78.20;;;;;;4959206;29;20031;-76
2023/08/29 05:07:08;;;;;;;0.00;0.00;;;15.20;78.10;;;;;;4956145;28;20054;-76
2023/08/29 05:09:33;;;;;;;0.10;0.10;;;15.20;78.20;;;;;;4958566;29;20059;-77
2023/08/29 05:11:59;;;;;;;0.10;0.10;;;15.20;78.10;;;;;;4968287;28;20485;-77
2023/08/29 05:14:25;;;;;;;0.05;0.05;;;15.20;78.00;;;;;;4976926;28;20027;-75
2023/08/29 05:16:51;;;;;;;0.10;0.10;;;15.10;78.20;;;;;;4978288;28;20054;-75
2023/08/29 05:19:16;;;;;;;0.00;0.00;;;15.10;78.10;;;;;;4947369;29;20051;-77
2023/08/29 05:21:42;;;;;;;0.10;0.10;;;15.20;78.10;;;;;;4958886;29;20478;-77
2023/08/29 05:24:08;;;;;;;0.10;0.10;;;15.10;77.80;;;;;;4956332;29;20090;-76
2023/08/29 05:26:33;;;;;;;0.03;0.03;;;15.20;77.80;;;;;;4958921;28;20042;-76
2023/08/29 05:28:59;;;;;;;0.00;0.00;;;15.20;77.70;;;;;;4942056;29;20023;-76
2023/08/29 05:31:25;;;;;;;0.10;0.10;;;15.20;77.70;;;;;;4957481;29;20051;-76
2023/08/29 05:33:51;;;;;;;0.10;0.10;;;15.20;78.00;;;;;;4958808;29;20497;-76
2023/08/29 05:36:16;;;;;;;0.00;0.00;;;15.10;77.60;;;;;;4959170;29;20027;-76
2023/08/29 05:38:42;;;;;;;0.08;0.08;;;15.20;77.80;;;;;;4956472;29;20023;-76
2023/08/29 05:41:08;;;;;;;0.00;0.00;;;15.10;78.00;;;;;;4965844;28;20035;-76
2023/08/29 05:43:34;;;;;;;0.00;0.00;;;15.10;78.00;;;;;;4978147;28;20023;-80
2023/08/29 05:46:00;;;;;;;0.10;0.10;;;15.10;77.80;;;;;;4948714;28;20042;-76
2023/08/29 05:48:26;;;;;;;0.10;0.10;;;15.10;77.90;;;;;;4952339;29;20065;-74
2023/08/29 05:50:51;;;;;;;0.00;0.00;;;15.20;78.00;;;;;;4958764;29;20636;-76
2023/08/29 05:53:18;;;;;;;0.00;0.00;;;15.20;78.00;;;;;;4950038;29;20023;-76
2023/08/29 05:55:45;;;;;;;0.10;0.10;;;15.20;77.90;;;;;;4922510;29;20059;-75
2023/08/29 05:58:10;;;;;;;0.10;0.10;;;15.30;77.90;;;;;;4939199;29;20028;-75
2023/08/29 06:00:37;;;;;;;0.00;0.00;;;15.30;77.80;;;;;;4943963;29;20035;-76
2023/08/29 06:03:04;;;;;;;0.10;0.10;;;15.30;77.70;;;;;;4958279;29;20019;-75
2023/08/29 06:05:33;;;;;;;0.00;0.00;;;15.30;77.50;;;;;;4940996;29;20500;-76
2023/08/29 06:08:02;;;;;;;0.00;0.00;;;15.30;77.50;;;;;;4944653;29;20072;-75
2023/08/29 06:10:31;;;;;;;0.10;0.10;;;15.30;77.50;;;;;;4939140;29;20036;-75
2023/08/29 06:12:57;;;;;;;0.10;0.10;;;15.30;77.50;;;;;;4968097;28;20026;-75
2023/08/29 06:15:22;;;;;;;0.10;0.10;;;15.40;77.40;;;;;;4965560;28;20568;-75
2023/08/29 06:17:49;;;;;;;0.03;0.03;;;15.40;77.20;;;;;;4950037;28;20051;-75
2023/08/29 06:20:15;;;;;;;0.10;0.10;;;15.40;77.30;;;;;;4965247;28;20065;-75
2023/08/29 06:22:41;;;;;;;0.03;0.00;;;15.50;77.10;;;;;;4951062;28;20023;-75
2023/08/29 06:25:07;;;;;;;0.00;0.00;;;15.40;77.00;;;;;;4967380;28;20028;-75
2023/08/29 06:27:36;;;;;;;0.10;0.10;;;15.40;77.40;;;;;;4965856;28;20024;-76
2023/08/29 06:30:02;;;;;;;0.10;0.10;;;15.50;77.30;;;;;;4948862;28;20106;-75
2023/08/29 06:32:28;;;;;;;0.10;0.10;;;15.50;77.00;;;;;;4964729;28;20062;-75
2023/08/29 06:34:53;;;;;;;0.00;0.00;;;15.50;77.00;;;;;;4965406;28;20499;-76
2023/08/29 06:37:20;;;;;;;0.00;0.00;;;15.60;77.10;;;;;;4967670;28;20027;-75
2023/08/29 06:39:45;;;;;;;0.10;0.10;;;15.60;77.00;;;;;;4948024;28;20031;-75
2023/08/29 06:42:11;;;;;;;0.00;0.00;;;15.60;76.80;;;;;;4967246;28;20019;-75
2023/08/29 06:44:37;;;;;;;0.00;0.00;;;15.70;76.90;;;;;;4939579;29;20049;-75
2023/08/29 06:47:03;;;;;;;0.03;0.03;;;15.80;76.90;;;;;;4940524;29;20040;-75
2023/08/29 06:49:28;;;;;;;0.00;0.00;;;15.80;76.70;;;;;;4938327;29;20041;-76
2023/08/29 06:51:54;;;;;;;0.10;0.10;;;15.80;76.70;;;;;;4921556;29;20087;-75
2023/08/29 06:54:20;;;;;;;0.08;0.08;;;15.80;76.70;;;;;;4937477;29;20127;-76
2023/08/29 06:56:45;;;;;;;0.00;0.00;;;15.90;76.40;;;;;;4942259;29;20085;-76
2023/08/29 06:59:12;;;;;;;0.05;0.05;;;16.00;76.20;;;;;;4956849;29;20066;-75
2023/08/29 07:01:37;;;;;;;0.00;0.00;;;16.10;76.10;;;;;;4940235;29;20027;-75
2023/08/29 07:04:04;;;;;;;0.10;0.10;;;16.10;76.20;;;;;;4944218;29;20040;-76
2023/08/29 07:06:30;;;;;;;0.03;0.03;;;16.20;75.90;;;;;;4946916;28;20023;-76
2023/08/29 07:08:55;;;;;;;0.00;0.00;;;16.20;75.80;;;;;;4958586;28;20047;-77
2023/08/29 07:11:21;;;;;;;0.10;0.10;;;16.30;75.80;;;;;;4957948;28;20019;-76
2023/08/29 07:13:47;;;;;;;0.00;0.00;;;16.30;75.70;;;;;;4959764;28;20096;-77
2023/08/29 07:16:12;;;;;;;0.10;0.10;;;16.40;75.90;;;;;;4955786;28;20033;-78
2023/08/29 07:18:38;;;;;;;0.10;0.10;;;16.50;75.80;;;;;;4952116;28;20034;-76
2023/08/29 07:21:04;;;;;;;0.10;0.10;;;16.50;75.60;;;;;;4959843;28;20042;-76
2023/08/29 07:23:37;;;;;;;0.00;0.00;;;16.50;75.40;;;;;;4957806;28;20035;-77
2023/08/29 07:26:03;;;;;;;0.10;0.10;;;16.70;75.10;;;;;;4952358;28;20027;-77
2023/08/29 07:28:29;;;;;;;0.00;0.00;;;16.70;75.00;;;;;;4957485;28;20097;-76
2023/08/29 07:30:55;;;;;;;0.03;0.03;;;16.70;75.10;;;;;;4959771;28;20506;-77
2023/08/29 07:33:21;;;;;;;0.00;0.00;;;16.80;74.90;;;;;;4959704;28;20022;-77
2023/08/29 07:35:47;;;;;;;0.00;0.00;;;16.80;75.00;;;;;;4957484;28;20031;-79
2023/08/29 07:38:14;;;;;;;0.10;0.10;;;16.90;75.00;;;;;;4951730;28;20030;-77
2023/08/29 07:40:39;;;;;;;0.10;0.10;;;17.00;75.10;;;;;;4956979;28;20493;-76
2023/08/29 07:43:07;;;;;;;0.10;0.10;;;17.00;74.50;;;;;;4958708;28;20043;-75
2023/08/29 07:45:34;;;;;;;0.00;0.00;;;17.10;74.30;;;;;;4934294;29;20528;-77
2023/08/29 07:48:00;;;;;;;0.00;0.00;;;17.20;74.50;;;;;;4955822;29;20034;-77
2023/08/29 07:50:26;;;;;;;0.10;0.10;;;17.30;74.30;;;;;;4960592;28;20036;-78
2023/08/29 07:52:52;;;;;;;0.10;0.10;;;17.40;74.40;;;;;;4949906;28;20027;-77
2023/08/29 07:55:18;;;;;;;0.00;0.00;;;17.50;74.60;;;;;;4944256;28;20106;-77
2023/08/29 07:57:45;;;;;;;0.00;0.00;;;17.50;74.20;;;;;;4967349;28;20038;-78
2023/08/29 08:00:11;;;;;;;0.03;0.03;;;17.50;74.30;;;;;;4948505;28;20521;-78
2023/08/29 08:02:40;;;;;;;0.00;0.00;;;17.50;74.30;;;;;;4949735;28;20733;-78
2023/08/29 08:05:07;;;;;;;0.03;0.03;;;17.60;74.60;;;;;;4952432;28;20027;-77
2023/08/29 08:07:32;;;;;;;0.10;0.10;;;17.60;74.00;;;;;;4970409;28;20027;-77
2023/08/29 08:09:58;;;;;;;0.10;0.10;;;17.60;74.10;;;;;;4966219;28;20371;-77
2023/08/29 08:12:24;;;;;;;0.10;0.10;;;17.50;74.10;;;;;;4966592;28;20426;-77
2023/08/29 08:14:52;;;;;;;0.05;0.05;;;17.60;74.30;;;;;;4965441;28;20058;-77
2023/08/29 08:17:18;;;;;;;0.03;0.03;;;17.60;74.30;;;;;;4950478;28;20034;-77
2023/08/29 08:19:44;;;;;;;0.00;0.00;;;17.60;74.40;;;;;;4948926;29;20023;-77
2023/08/29 08:22:10;;;;;;;0.10;0.10;;;17.70;74.00;;;;;;4959961;29;20035;-77
2023/08/29 08:24:35;;;;;;;0.10;0.10;;;17.60;74.00;;;;;;4957346;29;20202;-77
2023/08/29 08:27:01;;;;;;;0.10;0.10;;;17.70;74.20;;;;;;4965528;28;20034;-77
2023/08/29 08:29:27;;;;;;;0.10;0.10;;;17.70;74.40;;;;;;4952634;28;20110;-77
2023/08/29 08:31:53;;;;;;;0.00;0.00;;;17.70;74.40;;;;;;4966004;28;20046;-77
2023/08/29 08:34:19;;;;;;;0.00;0.00;;;17.80;74.70;;;;;;4969996;28;20022;-78
2023/08/29 08:36:44;;;;;;;0.10;0.10;;;17.80;74.40;;;;;;4951249;28;20023;-78
2023/08/29 08:39:10;;;;;;;0.10;0.10;;;17.80;73.90;;;;;;4966067;28;20086;-77
2023/08/29 08:41:37;;;;;;;0.00;0.00;;;17.80;74.20;;;;;;4943286;28;20031;-78
2023/08/29 08:44:07;;;;;;;0.00;0.00;;;17.90;74.50;;;;;;4940631;29;20375;-77
2023/08/29 08:46:34;;;;;;;0.00;0.00;;;18.00;74.00;;;;;;4940526;29;20032;-78
2023/08/29 08:49:00;;;;;;;0.00;0.00;;;18.00;74.00;;;;;;4940561;29;20032;-77
2023/08/29 08:51:29;;;;;;;0.00;0.00;;;18.10;73.70;;;;;;4954938;29;20027;-77
2023/08/29 08:53:56;;;;;;;0.10;0.10;;;18.00;73.50;;;;;;4959856;29;20023;-77
2023/08/29 08:56:22;;;;;;;0.10;0.10;;;18.10;73.50;;;;;;4959743;29;20035;-77
2023/08/29 08:58:48;;;;;;;0.10;0.10;;;18.00;73.60;;;;;;4946112;29;20063;-80
2023/08/29 09:01:14;;;;;;;0.00;0.00;;;18.10;73.80;;;;;;4923987;29;20028;-77
2023/08/29 09:03:41;;;;;;;0.00;0.00;;;18.10;73.90;;;;;;4955612;29;20122;-78
2023/08/29 09:06:07;;;;;;;0.10;0.10;;;18.20;73.80;;;;;;4959146;29;20110;-78
2023/08/29 09:08:34;;;;;;;0.03;0.03;;;18.30;73.80;;;;;;4945966;29;20059;-78
2023/08/29 09:11:01;;;;;;;0.05;0.05;;;18.40;73.00;;;;;;4945558;28;20096;-76
2023/08/29 09:13:27;;;;;;;0.08;0.08;;;18.60;73.10;;;;;;4937779;29;20517;-78
2023/08/29 09:15:53;;;;;;;0.00;0.00;;;18.70;72.10;;;;;;4940541;29;20030;-78
2023/08/29 09:18:28;;;;;;;0.10;0.10;;;18.80;72.00;;;;;;4957659;29;20027;-78
2023/08/29 09:20:58;;;;;;;0.10;0.10;;;19.00;72.50;;;;;;4939833;29;20090;-78
2023/08/29 09:23:25;;;;;;;0.10;0.10;;;19.20;71.30;;;;;;4957113;29;20118;-78
2023/08/29 09:25:58;;;;;;;0.10;0.10;;;19.30;71.30;;;;;;4925520;28;21066;-78
2023/08/29 09:28:29;;;;;;;0.03;0.03;;;19.40;70.80;;;;;;4935646;29;20063;-78
2023/08/29 09:30:55;;;;;;;0.03;0.03;;;19.50;70.60;;;;;;4955854;29;20035;-78
2023/08/29 09:33:21;;;;;;;0.00;0.00;;;19.70;69.90;;;;;;4935255;29;20078;-78
2023/08/29 09:35:50;;;;;;;0.17;0.10;;;19.80;70.30;;;;;;4952926;28;20051;-78
2023/08/29 09:38:20;;;;;;;0.00;0.00;;;19.90;69.20;;;;;;4934929;29;20035;-78
2023/08/29 09:40:50;;;;;;;0.00;0.00;;;20.00;68.70;;;;;;4945908;28;20552;-78
2023/08/29 09:43:16;;;;;;;0.10;0.10;;;20.00;68.50;;;;;;4955166;29;20087;-78
2023/08/29 09:45:52;;;;;;;0.00;0.00;;;20.00;68.20;;;;;;4956339;29;20071;-78
2023/08/29 09:48:18;;;;;;;0.00;0.00;;;20.10;68.30;;;;;;4956953;29;20038;-78
2023/08/29 09:50:45;;;;;;;0.10;0.10;;;20.20;68.00;;;;;;4938902;29;20023;-78
2023/08/29 09:53:16;;;;;;;0.10;0.10;;;20.20;68.00;;;;;;4938650;29;20389;-78
2023/08/29 09:55:46;;;;;;;0.00;0.00;;;20.20;67.50;;;;;;4957816;29;20027;-78
2023/08/29 09:58:15;;;;;;;0.00;0.00;;;20.20;67.70;;;;;;4940801;29;20478;-77
2023/08/29 10:00:41;;;;;;;0.00;0.00;;;20.20;66.60;;;;;;4954374;29;20023;-77
2023/08/29 10:03:08;;;;;;;0.10;0.10;;;20.20;67.00;;;;;;4953123;28;20042;-78
2023/08/29 10:05:36;;;;;;;0.00;0.00;;;20.10;66.20;;;;;;4942534;28;20027;-78
2023/08/29 10:08:11;;;;;;;0.10;0.10;;;20.10;67.00;;;;;;4939040;29;20032;-78
2023/08/29 10:10:38;;;;;;;0.05;0.05;;;20.20;66.70;;;;;;4943337;29;20028;-78
2023/08/29 10:13:05;;;;;;;0.10;0.10;;;20.20;65.80;;;;;;4938174;29;20035;-76
2023/08/29 10:15:34;;;;;;;0.00;0.00;;;20.30;65.90;;;;;;4922045;29;20023;-86
2023/08/29 10:18:01;;;;;;;0.08;0.08;;;20.40;65.20;;;;;;4934535;29;20472;-77
2023/08/29 10:20:27;;;;;;;0.10;0.10;;;20.40;64.40;;;;;;4940463;29;20023;-78
2023/08/29 10:22:54;;;;;;;0.00;0.00;;;20.50;64.60;;;;;;4938901;29;20487;-77
2023/08/29 10:25:23;;;;;;;0.00;0.00;;;20.60;64.30;;;;;;4950185;29;20027;-78
2023/08/29 10:27:50;;;;;;;0.00;0.00;;;20.70;64.30;;;;;;4958162;29;20114;-77
2023/08/29 10:30:16;;;;;;;0.00;0.00;;;20.70;63.90;;;;;;4954782;29;20019;-76
2023/08/29 10:32:44;;;;;;;0.00;0.00;;;20.80;63.80;;;;;;4957838;28;20058;-76
2023/08/29 10:35:22;;;;;;;0.00;0.00;;;20.80;64.30;;;;;;4939281;29;20094;-78
2023/08/29 10:37:52;;;;;;;0.00;0.00;;;20.60;64.10;;;;;;4939313;29;20489;-78
2023/08/29 10:40:19;;;;;;;0.10;0.10;;;20.70;64.30;;;;;;4959415;28;20098;-78
2023/08/29 10:42:53;;;;;;;0.00;0.00;;;20.80;64.00;;;;;;4958102;29;20027;-78
2023/08/29 10:45:40;;;;;;;0.00;0.00;;;20.80;64.10;;;;;;4952844;29;20031;-78
2023/08/29 10:48:06;;;;;;;0.10;0.10;;;20.90;63.80;;;;;;4936603;29;20034;-78
2023/08/29 10:50:33;;;;;;;0.00;0.00;;;21.00;62.00;;;;;;4954686;29;20023;-78
2023/08/29 10:52:59;;;;;;;0.10;0.10;;;21.00;61.80;;;;;;4939846;29;20370;-78
2023/08/29 10:55:27;;;;;;;0.10;0.10;;;21.20;61.70;;;;;;4940000;29;20026;-78
2023/08/29 10:57:58;;;;;;;0.00;0.00;;;21.10;60.70;;;;;;4955927;29;20066;-78
2023/08/29 11:00:42;;;;;;;0.00;0.00;;;21.30;61.50;;;;;;4955875;29;20078;-78
2023/08/29 11:03:08;;;;;;;0.10;0.10;;;21.50;61.50;;;;;;4939061;29;20041;-78
2023/08/29 11:05:39;;;;;;;0.08;0.08;;;21.70;61.10;;;;;;4957451;29;20031;-78
2023/08/29 11:08:23;;;;;;;0.00;0.00;;;21.80;61.00;;;;;;4957543;29;20033;-78
2023/08/29 11:11:19;;;;;;;0.00;0.00;;;21.80;59.80;;;;;;4940595;29;20055;-78
2023/08/29 11:13:57;;;;;;;0.10;0.10;;;21.60;59.50;;;;;;4924893;28;20040;-78
2023/08/29 11:16:24;;;;;;;0.10;0.10;;;21.60;60.20;;;;;;4937564;29;20027;-78
2023/08/29 11:19:06;;;;;;;0.00;0.00;;;21.50;60.40;;;;;;4953260;29;20031;-78
2023/08/29 11:21:32;;;;;;;0.00;0.00;;;21.50;60.90;;;;;;4936582;29;20122;-78
2023/08/29 11:23:58;;;;;;;0.10;0.10;;;21.40;61.10;;;;;;4957470;28;20032;-79
2023/08/29 11:26:25;;;;;;;0.10;0.10;;;21.40;60.30;;;;;;4960649;29;20082;-78
2023/08/29 11:28:51;;;;;;;0.10;0.10;;;21.50;60.80;;;;;;4959915;29;20019;-78
2023/08/29 11:31:18;;;;;;;0.00;0.00;;;21.50;60.40;;;;;;4925167;29;20051;-79
2023/08/29 11:33:48;;;;;;;0.00;0.00;;;21.60;61.30;;;;;;4943454;29;20024;-79
2023/08/29 11:36:15;;;;;;;0.00;0.00;;;21.60;60.10;;;;;;4960591;29;20027;-78
2023/08/29 11:38:43;;;;;;;0.05;0.05;;;21.50;60.30;;;;;;4942923;29;20031;-78
2023/08/29 11:41:10;;;;;;;0.10;0.10;;;21.50;60.90;;;;;;4962419;28;20038;-78
2023/08/29 11:43:36;;;;;;;0.10;0.10;;;21.50;60.90;;;;;;4960297;28;20027;-78
2023/08/29 11:46:03;;;;;;;0.00;0.00;;;21.60;60.10;;;;;;4954712;29;20039;-78
2023/08/29 11:48:31;;;;;;;0.10;0.10;;;21.70;60.10;;;;;;4951415;29;20102;-78
2023/08/29 11:51:07;;;;;;;0.10;0.10;;;21.80;59.40;;;;;;4959335;29;20118;-78
2023/08/29 11:53:35;;;;;;;0.10;0.10;;;21.90;58.30;;;;;;4960335;29;20024;-78
2023/08/29 11:56:03;;;;;;;0.00;0.00;;;22.00;57.20;;;;;;4955000;29;20077;-78
2023/08/29 11:58:34;;;;;;;0.00;0.00;;;22.00;56.40;;;;;;4960228;29;20027;-78
2023/08/29 12:01:09;;;;;;;0.00;0.00;;;21.90;57.10;;;;;;4943471;29;20050;-78
2023/08/29 12:03:39;;;;;;;0.03;0.03;;;21.80;57.70;;;;;;4960378;29;20058;-79
2023/08/29 12:06:11;;;;;;;0.10;0.10;;;21.90;58.00;;;;;;4959855;29;20067;-78
2023/08/29 12:08:37;;;;;;;0.08;0.08;;;22.10;57.60;;;;;;4957618;29;20583;-78
2023/08/29 12:11:03;;;;;;;0.10;0.10;;;22.30;57.70;;;;;;4959929;29;20069;-78
2023/08/29 12:13:29;;;;;;;0.10;0.10;;;22.50;56.90;;;;;;4957450;29;20019;-79
2023/08/29 12:15:55;;;;;;;0.10;0.10;;;22.60;54.90;;;;;;4942853;29;20114;-78
2023/08/29 12:18:24;;;;;;;0.10;0.10;;;22.60;54.40;;;;;;4955894;29;20027;-78
2023/08/29 12:20:51;;;;;;;0.00;0.00;;;22.60;55.40;;;;;;4959657;29;20027;-79
2023/08/29 12:23:27;;;;;;;0.08;0.08;;;22.80;55.60;;;;;;4956597;29;20031;-78
2023/08/29 12:25:55;;;;;;;0.00;0.00;;;22.90;55.60;;;;;;4940079;29;20062;-79
2023/08/29 12:28:25;;;;;;;0.10;0.10;;;23.00;54.90;;;;;;4959762;29;20023;-78
2023/08/29 12:30:54;;;;;;;0.10;0.10;;;22.90;53.90;;;;;;4959594;29;20098;-79
2023/08/29 12:33:21;;;;;;;0.10;0.10;;;23.00;54.70;;;;;;4957300;29;20023;-78
2023/08/29 12:35:46;;;;;;;0.10;0.10;;;23.00;55.20;;;;;;4941769;29;20054;-79
2023/08/29 12:38:12;;;;;;;0.10;0.10;;;23.00;54.40;;;;;;4942632;29;20023;-79
2023/08/29 12:40:38;;;;;;;0.00;0.00;;;23.20;54.10;;;;;;4958318;28;20040;-77
2023/08/29 12:43:06;;;;;;;0.10;0.10;;;23.20;54.00;;;;;;4959682;29;20536;-77
2023/08/29 12:45:32;;;;;;;0.10;0.10;;;23.30;53.60;;;;;;4941358;29;20027;-77
2023/08/29 12:47:58;;;;;;;0.03;0.03;;;23.40;52.20;;;;;;4942287;29;20027;-77
2023/08/29 12:50:23;;;;;;;0.10;0.10;;;23.40;53.20;;;;;;4956024;29;20414;-78
2023/08/29 12:52:49;;;;;;;0.00;0.00;;;23.50;52.90;;;;;;4942283;29;20119;-79
2023/08/29 12:55:15;;;;;;;0.00;0.00;;;23.60;52.60;;;;;;4941936;29;20028;-78
2023/08/29 12:57:41;;;;;;;0.00;0.00;;;23.50;52.50;;;;;;4959545;29;20070;-78
2023/08/29 13:00:07;;;;;;;0.00;0.00;;;23.50;52.10;;;;;;4959612;29;20102;-78
2023/08/29 13:02:34;;;;;;;0.00;0.00;;;23.50;51.10;;;;;;4959124;29;20019;-78
2023/08/29 13:05:00;;;;;;;0.00;0.00;;;23.30;52.20;;;;;;4941791;29;20042;-79
2023/08/29 13:07:25;;;;;;;0.10;0.10;;;23.30;51.50;;;;;;4940346;29;20449;-78
2023/08/29 13:09:52;;;;;;;0.00;0.00;;;23.40;51.30;;;;;;4954658;29;20458;-78
2023/08/29 13:12:19;;;;;;;0.10;0.10;;;23.30;52.30;;;;;;4953759;29;20026;-78
2023/08/29 13:14:45;;;;;;;0.08;0.08;;;23.30;52.80;;;;;;4959005;29;20113;-78
2023/08/29 13:17:11;;;;;;;0.00;0.00;;;23.30;52.40;;;;;;4941417;29;20074;-78
2023/08/29 13:19:38;;;;;;;0.00;0.00;;;23.40;50.80;;;;;;4958756;29;20031;-79
2023/08/29 13:22:06;;;;;;;0.00;0.00;;;23.30;50.50;;;;;;4958089;29;20146;-78
2023/08/29 13:24:32;;;;;;;0.00;0.00;;;23.30;51.90;;;;;;4958838;29;20031;-78
2023/08/29 13:26:57;;;;;;;0.00;0.00;;;23.30;51.80;;;;;;4958765;29;20024;-78
2023/08/29 13:29:24;;;;;;;0.00;0.00;;;23.20;52.10;;;;;;4957418;29;20116;-78
2023/08/29 13:31:50;;;;;;;0.00;0.00;;;23.10;53.00;;;;;;4955565;29;20039;-78
2023/08/29 13:34:16;;;;;;;0.00;0.00;;;23.20;51.90;;;;;;4957876;29;20020;-79
2023/08/29 13:36:42;;;;;;;0.00;0.00;;;23.20;50.60;;;;;;4940231;29;20110;-78
2023/08/29 13:39:08;;;;;;;0.00;0.00;;;23.20;49.50;;;;;;4941386;29;20031;-78
2023/08/29 13:41:34;;;;;;;0.00;0.00;;;23.20;50.30;;;;;;4959743;28;20035;-78
2023/08/29 13:43:59;;;;;;;0.00;0.00;;;23.20;50.60;;;;;;4958389;29;20024;-78
2023/08/29 13:46:26;;;;;;;0.00;0.00;;;23.00;51.10;;;;;;4956594;28;20039;-79
2023/08/29 13:48:52;;;;;;;0.10;0.10;;;22.90;51.30;;;;;;4941322;29;20023;-78
2023/08/29 13:51:18;;;;;;;0.00;0.00;;;22.80;52.20;;;;;;4937982;29;20104;-78
2023/08/29 13:53:44;;;;;;;0.08;0.08;;;22.80;52.30;;;;;;4959043;29;20474;-78
2023/08/29 13:56:10;;;;;;;0.00;0.00;;;22.70;51.60;;;;;;4958639;29;20501;-78
2023/08/29 13:58:35;;;;;;;0.10;0.10;;;22.80;52.00;;;;;;4958486;29;20039;-78
2023/08/29 14:01:02;;;;;;;0.00;0.00;;;22.90;52.30;;;;;;4944145;29;20446;-78
2023/08/29 14:03:28;;;;;;;0.00;0.00;;;23.00;51.20;;;;;;4952673;28;20042;-78
2023/08/29 14:05:56;;;;;;;0.08;0.08;;;22.90;51.80;;;;;;4955349;28;20149;-78
2023/08/29 14:08:22;;;;;;;0.00;0.00;;;23.00;51.40;;;;;;4956802;29;20075;-78
2023/08/29 14:10:48;;;;;;;0.10;0.10;;;22.80;50.50;;;;;;4955916;28;20102;-78
2023/08/29 14:13:14;;;;;;;0.15;0.10;;;22.80;51.10;;;;;;4958261;29;20062;-79
2023/08/29 14:15:39;;;;;;;0.00;0.00;;;22.90;51.90;;;;;;4958472;29;20027;-79
2023/08/29 14:18:05;;;;;;;0.10;0.10;;;22.90;51.30;;;;;;4946144;29;20063;-79
2023/08/29 14:20:31;;;;;;;0.00;0.00;;;22.90;52.30;;;;;;4922967;29;20035;-80
2023/08/29 14:23:00;;;;;;;0.00;0.00;;;22.90;50.40;;;;;;4944086;29;20074;-79
2023/08/29 14:25:27;;;;;;;0.00;0.00;;;22.90;50.90;;;;;;4958234;28;20027;-79
2023/08/29 14:27:56;;;;;;;0.00;0.00;;;22.90;49.70;;;;;;4958015;29;20027;-79
2023/08/29 14:30:22;;;;;;;0.00;0.00;;;22.80;51.60;;;;;;4950089;29;20024;-79
2023/08/29 14:32:48;;;;;;;0.03;0.03;;;22.80;51.40;;;;;;4951160;29;20023;-79
2023/08/29 14:35:14;;;;;;;0.10;0.10;;;22.80;50.90;;;;;;4957745;29;20086;-79
2023/08/29 14:37:39;;;;;;;0.00;0.00;;;22.80;50.90;;;;;;4957945;29;20110;-79
2023/08/29 14:40:06;;;;;;;0.10;0.10;;;22.90;51.20;;;;;;4944526;28;20027;-78
2023/08/29 14:42:32;;;;;;;0.00;0.00;;;22.90;51.00;;;;;;4960194;28;20053;-78
2023/08/29 14:44:59;;;;;;;0.10;0.10;;;23.00;50.70;;;;;;4957477;28;20476;-78
2023/08/29 14:47:26;;;;;;;0.10;0.10;;;23.20;51.10;;;;;;4939973;29;20035;-79
2023/08/29 14:49:52;;;;;;;0.00;0.00;;;23.30;51.00;;;;;;4936472;29;20027;-78
2023/08/29 14:52:17;;;;;;;0.00;0.00;;;23.30;51.70;;;;;;4938855;29;20031;-79
2023/08/29 14:54:43;;;;;;;0.00;0.00;;;23.40;50.90;;;;;;4947917;29;20031;-79
2023/08/29 14:57:08;;;;;;;0.00;0.00;;;23.30;50.50;;;;;;4957898;29;20027;-79
2023/08/29 14:59:34;;;;;;;0.00;0.00;;;23.30;49.90;;;;;;4957313;28;20375;-80
2023/08/29 15:02:00;;;;;;;0.00;0.00;;;23.30;50.30;;;;;;4957496;29;20402;-78
2023/08/29 15:04:26;;;;;;;0.00;0.00;;;23.20;50.40;;;;;;4956147;29;20085;-79
2023/08/29 15:06:51;;;;;;;0.00;0.00;;;23.10;50.00;;;;;;4943509;29;20119;-79
2023/08/29 15:09:17;;;;;;;0.10;0.10;;;23.10;49.80;;;;;;4957195;28;20019;-79
2023/08/29 15:11:43;;;;;;;0.00;0.00;;;23.00;50.20;;;;;;4957581;29;20032;-79
2023/08/29 15:14:08;;;;;;;0.08;0.08;;;23.00;50.70;;;;;;4943372;29;20024;-79
2023/08/29 15:16:35;;;;;;;0.10;0.10;;;22.90;50.80;;;;;;4957576;29;20194;-79
2023/08/29 15:19:00;;;;;;;0.00;0.00;;;22.90;51.10;;;;;;4957610;29;20034;-77
2023/08/29 15:21:26;;;;;;;0.10;0.10;;;23.00;51.40;;;;;;4955550;28;20035;-79
2023/08/29 15:23:52;;;;;;;0.05;0.05;;;23.00;51.40;;;;;;4940114;29;20096;-79
2023/08/29 15:26:18;;;;;;;0.00;0.00;;;22.80;49.70;;;;;;4939158;29;20067;-79
2023/08/29 15:28:43;;;;;;;0.00;0.00;;;22.70;51.10;;;;;;4939767;29;20443;-79
2023/08/29 15:31:09;;;;;;;0.00;0.00;;;22.60;51.80;;;;;;4955675;29;20055;-79
2023/08/29 15:33:34;;;;;;;0.10;0.10;;;22.70;51.80;;;;;;4955928;29;20490;-78
2023/08/29 15:36:00;;;;;;;0.00;0.00;;;22.60;52.40;;;;;;4939958;29;20028;-78
2023/08/29 15:38:26;;;;;;;0.00;0.00;;;22.60;52.00;;;;;;4939100;29;20090;-78
2023/08/29 15:40:55;;;;;;;0.00;0.00;;;22.50;51.40;;;;;;4957023;29;20375;-78
2023/08/29 15:43:22;;;;;;;0.00;0.00;;;22.40;52.40;;;;;;4957089;29;20034;-78
2023/08/29 15:45:48;;;;;;;0.00;0.00;;;22.50;52.30;;;;;;4939581;29;20047;-79
2023/08/29 15:48:15;;;;;;;0.00;0.00;;;22.40;52.50;;;;;;4956320;29;20031;-79
2023/08/29 15:50:43;;;;;;;0.00;0.00;;;22.50;53.10;;;;;;4956790;29;20038;-78
2023/08/29 15:53:09;;;;;;;0.20;0.10;;;22.60;52.40;;;;;;4939929;29;20034;-81
2023/08/29 15:55:35;;;;;;;0.00;0.00;;;22.50;53.20;;;;;;4944850;28;20471;-80
2023/08/29 15:58:01;;;;;;;0.00;0.00;;;22.50;53.10;;;;;;4947044;29;20077;-80
2023/08/29 16:00:27;;;;;;;0.00;0.00;;;22.50;53.20;;;;;;4939576;29;20090;-80
2023/08/29 16:02:53;;;;;;;0.00;0.00;;;22.60;53.20;;;;;;4950539;28;20035;-79
2023/08/29 16:05:18;;;;;;;0.05;0.05;;;22.50;52.50;;;;;;4942264;28;20054;-80
2023/08/29 16:07:45;;;;;;;0.00;0.00;;;22.50;52.90;;;;;;4938854;29;20634;-79
2023/08/29 16:10:14;;;;;;;0.00;0.00;;;22.50;51.80;;;;;;4953220;28;20028;-80
2023/08/29 16:12:40;;;;;;;0.00;0.00;;;22.50;52.70;;;;;;4942309;29;20035;-80
2023/08/29 16:15:06;;;;;;;0.00;0.00;;;22.50;53.40;;;;;;4958754;29;20046;-79
2023/08/29 16:17:34;;;;;;;0.00;0.00;;;22.50;52.90;;;;;;4959226;28;20122;-79
2023/08/29 16:20:00;;;;;;;0.00;0.00;;;22.50;53.20;;;;;;4963983;28;20023;-82
2023/08/29 16:22:26;;;;;;;0.00;0.00;;;22.40;52.90;;;;;;4940427;29;20395;-80
2023/08/29 16:24:53;;;;;;;0.00;0.00;;;22.30;52.40;;;;;;4956494;28;20057;-81
2023/08/29 16:27:19;;;;;;;0.05;0.05;;;22.30;53.00;;;;;;4958506;29;20774;-81
2023/08/29 16:29:45;;;;;;;0.00;0.00;;;22.30;53.20;;;;;;4959946;29;20031;-79
2023/08/29 16:32:10;;;;;;;0.00;0.00;;;22.30;52.70;;;;;;4955643;28;20066;-80
2023/08/29 16:34:36;;;;;;;0.05;0.05;;;22.30;54.00;;;;;;4948920;29;20387;-80
2023/08/29 16:37:02;;;;;;;0.00;0.00;;;22.30;54.10;;;;;;4959671;29;20042;-79
2023/08/29 16:39:28;;;;;;;0.00;0.00;;;22.30;53.70;;;;;;4941732;29;20042;-80
2023/08/29 16:41:54;;;;;;;0.00;0.00;;;22.30;53.90;;;;;;4934736;29;20039;-80
2023/08/29 16:44:20;;;;;;;0.00;0.00;;;22.20;54.20;;;;;;4944357;29;20059;-80
2023/08/29 16:46:46;;;;;;;0.17;0.10;;;22.10;53.70;;;;;;4958475;29;20504;-80
2023/08/29 16:49:12;;;;;;;0.00;0.00;;;22.10;54.00;;;;;;4959686;29;20596;-80
2023/08/29 16:51:38;;;;;;;0.00;0.00;;;22.10;55.00;;;;;;4947959;29;20494;-80
2023/08/29 16:54:05;;;;;;;0.00;0.00;;;22.00;55.60;;;;;;4945063;29;20939;-80
2023/08/29 16:56:31;;;;;;;0.00;0.00;;;22.00;55.30;;;;;;4941034;29;20122;-81
2023/08/29 16:58:56;;;;;;;0.00;0.00;;;22.00;54.90;;;;;;4959639;29;20135;-81
2023/08/29 17:01:22;;;;;;;0.00;0.00;;;21.90;54.60;;;;;;4946653;29;20035;-81
2023/08/29 17:03:48;;;;;;;0.00;0.00;;;21.90;55.60;;;;;;4959144;29;20031;-79
2023/08/29 17:06:13;;;;;;;0.00;0.00;;;21.90;55.60;;;;;;4942415;29;20066;-79
2023/08/29 17:08:39;;;;;;;0.00;0.00;;;21.80;55.50;;;;;;4955314;29;20077;-83
2023/08/29 17:11:05;;;;;;;0.00;0.00;;;21.70;55.60;;;;;;4948507;28;20035;-83
2023/08/29 17:13:30;;;;;;;0.00;0.00;;;21.70;55.60;;;;;;4949989;28;20032;-82
2023/08/29 17:15:56;;;;;;;0.00;0.00;;;21.60;55.40;;;;;;4953787;29;20039;-84